createdAt,value
2018-12-06T00:00:47.346Z,90.80
2018-12-06T00:03:15.628Z,90.80
2018-12-06T00:05:43.878Z,90.80
2018-12-06T00:08:17.503Z,90.80
2018-12-06T00:10:45.831Z,90.50
2018-12-06T00:13:14.091Z,91.00
2018-12-06T00:15:42.364Z,91.00
2018-12-06T00:18:10.966Z,90.80
2018-12-06T00:20:39.231Z,90.70
2018-12-06T00:23:07.527Z,90.70
2018-12-06T00:25:35.802Z,90.80
2018-12-06T00:28:04.134Z,90.60
2018-12-06T00:30:36.134Z,91.00
2018-12-06T00:33:04.554Z,91.10
2018-12-06T00:35:32.901Z,90.90
2018-12-06T00:38:01.179Z,90.80
2018-12-06T00:40:29.435Z,91.00
2018-12-06T00:42:57.687Z,91.00
2018-12-06T00:45:25.984Z,91.00
2018-12-06T00:47:54.284Z,90.90
2018-12-06T00:50:22.627Z,90.70
2018-12-06T00:52:51.094Z,90.90
2018-12-06T00:55:19.346Z,91.30
2018-12-06T00:57:47.594Z,90.60
2018-12-06T01:00:16.058Z,90.40
2018-12-06T01:02:44.307Z,90.50
2018-12-06T01:05:12.792Z,90.60
2018-12-06T01:07:41.063Z,91.00
2018-12-06T01:10:09.487Z,90.60
2018-12-06T01:12:37.750Z,90.70
2018-12-06T01:15:06.506Z,90.60
2018-12-06T01:17:34.764Z,90.60
2018-12-06T01:20:03.386Z,90.70
2018-12-06T01:22:31.668Z,90.70
2018-12-06T01:24:59.928Z,90.70
2018-12-06T01:27:28.189Z,90.80
2018-12-06T01:29:56.479Z,90.60
2018-12-06T01:32:24.736Z,90.60
2018-12-06T01:34:52.990Z,90.80
2018-12-06T01:37:21.855Z,90.60
2018-12-06T01:39:50.111Z,90.80
2018-12-06T01:42:18.377Z,90.70
2018-12-06T01:44:46.651Z,91.00
2018-12-06T01:47:15.322Z,91.00
2018-12-06T01:49:43.775Z,90.90
2018-12-06T01:52:12.487Z,90.90
2018-12-06T01:54:41.411Z,90.90
2018-12-06T01:57:09.672Z,91.00
2018-12-06T01:59:38.275Z,91.50
2018-12-06T02:02:06.528Z,91.20
2018-12-06T02:04:34.771Z,91.20
2018-12-06T02:07:03.054Z,91.40
2018-12-06T02:09:31.305Z,91.40
2018-12-06T02:11:59.554Z,91.40
2018-12-06T02:14:27.834Z,91.30
2018-12-06T02:16:56.086Z,91.30
2018-12-06T02:19:24.506Z,91.20
2018-12-06T02:21:53.298Z,91.60
2018-12-06T02:24:22.574Z,91.50
2018-12-06T02:26:50.828Z,91.60
2018-12-06T02:29:19.113Z,91.90
2018-12-06T02:31:47.355Z,91.90
2018-12-06T02:34:15.610Z,91.90
2018-12-06T02:36:43.918Z,91.80
2018-12-06T02:39:12.162Z,91.70
2018-12-06T02:41:40.417Z,91.70
2018-12-06T02:44:09.082Z,91.80
2018-12-06T02:46:37.326Z,92.00
2018-12-06T02:49:05.573Z,91.90
2018-12-06T02:51:33.850Z,92.00
2018-12-06T02:54:02.106Z,92.00
2018-12-06T02:56:30.372Z,91.80
2018-12-06T02:58:58.654Z,91.70
2018-12-06T03:01:26.902Z,91.60
2018-12-06T03:03:55.595Z,91.80
2018-12-06T03:06:24.053Z,92.10
2018-12-06T03:08:52.306Z,92.10
2018-12-06T03:11:20.564Z,92.40
2018-12-06T03:13:48.830Z,92.10
2018-12-06T03:16:17.092Z,92.00
2018-12-06T03:18:45.338Z,91.90
2018-12-06T03:21:13.614Z,91.40
2018-12-06T03:23:42.438Z,91.20
2018-12-06T03:26:10.685Z,91.40
2018-12-06T03:28:39.292Z,91.30
2018-12-06T03:31:07.543Z,91.30
2018-12-06T03:33:35.795Z,91.40
2018-12-06T03:36:04.074Z,91.60
2018-12-06T03:38:32.322Z,91.90
2018-12-06T03:41:00.785Z,92.40
2018-12-06T03:43:29.061Z,93.10
2018-12-06T03:45:57.301Z,92.90
2018-12-06T03:48:25.547Z,93.20
2018-12-06T03:50:53.888Z,93.40
2018-12-06T03:53:22.141Z,93.40
2018-12-06T03:55:50.389Z,93.60
2018-12-06T03:58:19.232Z,94.00
2018-12-06T04:00:47.476Z,94.10
2018-12-06T04:03:15.730Z,93.80
2018-12-06T04:05:44.318Z,94.00
2018-12-06T04:08:12.562Z,94.20
2018-12-06T04:10:40.813Z,94.30
2018-12-06T04:13:09.505Z,94.10
2018-12-06T04:15:37.850Z,94.20
2018-12-06T04:18:06.112Z,94.20
2018-12-06T04:20:34.390Z,93.90
2018-12-06T04:23:02.664Z,94.10
2018-12-06T04:25:31.103Z,94.10
2018-12-06T04:28:01.303Z,94.10
2018-12-06T04:30:29.567Z,94.50
2018-12-06T04:32:57.838Z,94.20
2018-12-06T04:35:26.589Z,94.40
2018-12-06T04:37:54.915Z,94.30
2018-12-06T04:40:23.175Z,94.30
2018-12-06T04:42:51.440Z,94.30
2018-12-06T04:45:19.709Z,94.30
2018-12-06T04:47:47.965Z,94.60
2018-12-06T04:50:16.238Z,94.80
2018-12-06T04:52:44.722Z,94.80
2018-12-06T04:55:12.978Z,94.60
2018-12-06T04:57:41.847Z,94.70
2018-12-06T05:00:10.118Z,94.90
2018-12-06T05:02:38.372Z,94.70
2018-12-06T05:05:06.726Z,95.30
2018-12-06T05:07:35.032Z,95.40
2018-12-06T05:10:04.146Z,96.20
2018-12-06T05:12:32.427Z,96.00
2018-12-06T05:15:00.683Z,96.10
2018-12-06T05:17:28.935Z,95.90
2018-12-06T05:19:57.362Z,95.70
2018-12-06T05:22:25.613Z,96.60
2018-12-06T05:24:53.874Z,96.30
2018-12-06T05:27:22.461Z,96.20
2018-12-06T05:29:50.702Z,96.60
2018-12-06T05:32:18.956Z,96.50
2018-12-06T05:34:48.843Z,96.30
2018-12-06T05:37:17.084Z,96.30
2018-12-06T05:39:45.348Z,96.60
2018-12-06T05:42:13.918Z,95.90
2018-12-06T05:44:42.175Z,96.20
2018-12-06T05:47:10.435Z,96.40
2018-12-06T05:49:38.710Z,96.80
2018-12-06T05:52:06.966Z,96.60
2018-12-06T05:54:35.366Z,96.70
2018-12-06T05:57:03.696Z,96.50
2018-12-06T05:59:31.922Z,96.40
2018-12-06T06:02:00.173Z,96.50
2018-12-06T06:04:28.495Z,96.80
2018-12-06T06:06:58.723Z,96.70
2018-12-06T06:09:26.971Z,96.80
2018-12-06T06:11:55.314Z,97.10
2018-12-06T06:14:23.546Z,97.00
2018-12-06T06:16:51.798Z,97.00
2018-12-06T06:19:20.074Z,97.20
2018-12-06T06:21:48.328Z,97.50
2018-12-06T06:24:16.582Z,97.80
2018-12-06T06:26:45.063Z,98.10
2018-12-06T06:29:13.530Z,98.00
2018-12-06T06:31:41.779Z,97.90
2018-12-06T06:34:10.051Z,98.40
2018-12-06T06:36:38.648Z,98.50
2018-12-06T06:39:06.959Z,98.40
2018-12-06T06:41:35.236Z,98.50
2018-12-06T06:44:03.481Z,98.60
2018-12-06T06:46:31.735Z,98.60
2018-12-06T06:49:00.214Z,99.10
2018-12-06T06:51:28.466Z,98.90
2018-12-06T06:53:56.723Z,98.80
2018-12-06T06:56:24.999Z,99.00
2018-12-06T06:58:53.255Z,99.20
2018-12-06T07:01:21.522Z,99.30
2018-12-06T07:03:49.806Z,99.20
2018-12-06T07:06:18.071Z,99.20
2018-12-06T07:08:46.463Z,99.20
2018-12-06T07:11:14.922Z,99.90
2018-12-06T07:13:45.670Z,99.70
2018-12-06T07:16:13.983Z,99.90
2018-12-06T07:18:42.512Z,99.60
2018-12-06T07:21:10.760Z,99.90
2018-12-06T07:23:39.016Z,99.90
2018-12-06T07:26:07.303Z,99.90
2018-12-06T07:28:35.646Z,99.80
2018-12-06T07:31:04.494Z,99.60
2018-12-06T07:33:32.922Z,99.40
2018-12-06T07:36:01.172Z,99.70
2018-12-06T07:38:33.499Z,99.90
2018-12-06T07:41:02.386Z,99.80
2018-12-06T07:43:30.638Z,99.90
2018-12-06T07:46:04.646Z,99.90
2018-12-06T07:48:32.922Z,99.90
2018-12-06T07:51:01.263Z,99.90
2018-12-06T07:53:30.307Z,99.90
2018-12-06T07:55:58.565Z,99.90
2018-12-06T07:58:26.818Z,99.90
2018-12-06T08:00:56.940Z,99.90
2018-12-06T08:03:26.582Z,99.90
2018-12-06T08:05:56.331Z,99.90
2018-12-06T08:08:27.148Z,99.90
2018-12-06T08:11:00.425Z,99.90
2018-12-06T08:13:29.948Z,99.90
2018-12-06T08:16:00.356Z,99.90
2018-12-06T08:18:29.069Z,99.90
2018-12-06T08:20:57.342Z,99.90
2018-12-06T08:23:25.606Z,99.90
2018-12-06T08:25:53.862Z,99.90
2018-12-06T08:28:22.166Z,99.90
2018-12-06T08:30:50.502Z,99.90
2018-12-06T08:33:19.070Z,99.90
2018-12-06T08:35:47.895Z,99.90
2018-12-06T08:38:17.571Z,99.90
2018-12-06T08:40:45.871Z,99.90
2018-12-06T08:43:16.172Z,99.90
2018-12-06T08:45:44.422Z,99.90
2018-12-06T08:48:12.681Z,99.90
2018-12-06T08:50:40.950Z,99.90
2018-12-06T08:53:09.210Z,99.90
2018-12-06T08:55:37.558Z,99.90
2018-12-06T08:58:06.294Z,99.90
2018-12-06T09:00:34.555Z,99.90
2018-12-06T09:03:03.751Z,99.90
2018-12-06T09:05:32.038Z,99.90
2018-12-06T09:08:00.289Z,99.90
2018-12-06T09:10:28.730Z,99.90
2018-12-06T09:12:57.954Z,99.90
2018-12-06T09:15:26.208Z,99.90
2018-12-06T09:17:55.466Z,99.90
2018-12-06T09:20:24.287Z,99.90
2018-12-06T09:22:52.515Z,99.90
2018-12-06T09:25:21.280Z,99.90
2018-12-06T09:27:49.954Z,99.90
2018-12-06T09:30:18.211Z,99.90
2018-12-06T09:32:46.466Z,99.90
2018-12-06T09:35:15.034Z,99.90
2018-12-06T09:37:43.283Z,99.90
2018-12-06T09:40:12.135Z,99.90
2018-12-06T09:42:40.810Z,99.90
2018-12-06T09:45:09.142Z,99.90
2018-12-06T09:47:37.411Z,99.90
2018-12-06T09:50:06.064Z,99.90
2018-12-06T09:52:34.279Z,99.90
2018-12-06T09:55:02.898Z,99.90
2018-12-06T09:57:31.174Z,99.90
2018-12-06T09:59:59.489Z,99.90
2018-12-06T10:02:27.788Z,99.90
2018-12-06T10:04:56.530Z,99.90
2018-12-06T10:07:24.788Z,99.90
2018-12-06T10:09:53.048Z,99.90
2018-12-06T10:12:21.329Z,99.90
2018-12-06T10:14:49.666Z,99.90
2018-12-06T10:17:17.927Z,99.90
2018-12-06T10:19:46.233Z,99.90
2018-12-06T10:22:14.486Z,99.90
2018-12-06T10:24:42.751Z,99.90
2018-12-06T10:27:11.103Z,99.90
2018-12-06T10:29:39.359Z,99.90
2018-12-06T10:32:07.653Z,99.90
2018-12-06T10:34:36.974Z,99.90
2018-12-06T10:37:05.462Z,99.90
2018-12-06T10:39:33.785Z,99.90
2018-12-06T10:42:02.278Z,99.90
2018-12-06T10:44:30.625Z,99.90
2018-12-06T10:46:59.003Z,99.90
2018-12-06T10:49:27.667Z,99.90
2018-12-06T10:51:56.096Z,99.90
2018-12-06T10:54:24.350Z,99.90
2018-12-06T10:56:52.631Z,99.90
2018-12-06T10:59:20.894Z,99.90
2018-12-06T11:01:51.131Z,99.90
2018-12-06T11:04:19.410Z,99.90
2018-12-06T11:06:47.678Z,99.90
2018-12-06T11:09:15.967Z,99.90
2018-12-06T11:11:44.435Z,99.90
2018-12-06T11:14:13.132Z,99.90
2018-12-06T11:17:32.451Z,99.90
2018-12-06T11:20:00.702Z,99.90
2018-12-06T11:22:30.942Z,99.90
2018-12-06T11:24:59.268Z,99.90
2018-12-06T11:27:27.518Z,99.90
2018-12-06T11:29:55.778Z,99.90
2018-12-06T11:32:24.603Z,99.90
2018-12-06T11:34:52.871Z,99.90
2018-12-06T11:37:21.481Z,99.90
2018-12-06T11:39:49.759Z,99.90
2018-12-06T11:42:19.001Z,99.90
2018-12-06T11:44:47.587Z,99.90
2018-12-06T11:47:15.862Z,99.90
2018-12-06T11:49:44.126Z,99.90
2018-12-06T11:52:12.378Z,99.90
2018-12-06T11:54:40.950Z,99.90
2018-12-06T11:57:09.206Z,99.90
2018-12-06T11:59:37.470Z,99.90
2018-12-06T12:02:09.987Z,99.90
2018-12-06T12:04:38.122Z,99.90
2018-12-06T12:07:06.431Z,99.90
2018-12-06T12:09:34.762Z,99.90
2018-12-06T12:12:03.022Z,99.90
2018-12-06T12:14:31.963Z,99.90
2018-12-06T12:17:00.215Z,99.90
2018-12-06T12:19:28.466Z,99.90
2018-12-06T12:21:56.742Z,99.90
2018-12-06T12:24:25.000Z,99.90
2018-12-06T12:26:53.405Z,99.90
2018-12-06T12:29:23.066Z,99.90
2018-12-06T12:31:53.819Z,99.90
2018-12-06T12:34:22.070Z,99.90
2018-12-06T12:36:50.934Z,99.90
2018-12-06T12:39:19.751Z,99.90
2018-12-06T12:41:49.634Z,99.90
2018-12-06T12:44:17.930Z,99.90
2018-12-06T12:46:46.188Z,99.90
2018-12-06T12:49:14.544Z,99.90
2018-12-06T12:51:42.825Z,99.90
2018-12-06T12:54:11.074Z,99.90
2018-12-06T12:56:39.331Z,99.90
2018-12-06T12:59:08.190Z,99.90
2018-12-06T13:01:36.463Z,99.90
2018-12-06T13:04:04.714Z,99.90
2018-12-06T13:06:32.996Z,99.90
2018-12-06T13:09:01.258Z,99.90
2018-12-06T13:11:29.507Z,99.90
2018-12-06T13:13:57.803Z,99.90
2018-12-06T13:16:26.070Z,99.90
2018-12-06T13:18:54.322Z,99.90
2018-12-06T13:21:22.679Z,99.90
2018-12-06T13:23:51.025Z,99.90
2018-12-06T13:26:19.289Z,99.90
2018-12-06T13:28:47.705Z,99.90
2018-12-06T13:31:16.061Z,99.90
2018-12-06T13:33:44.510Z,99.90
2018-12-06T13:36:12.810Z,99.90
2018-12-06T13:38:41.161Z,99.90
2018-12-06T13:41:09.718Z,99.90
2018-12-06T13:43:38.170Z,99.90
2018-12-06T13:46:06.563Z,99.90
2018-12-06T13:48:35.574Z,99.90
2018-12-06T13:51:03.853Z,99.90
2018-12-06T13:53:32.107Z,99.90
2018-12-06T13:56:00.380Z,99.90
2018-12-06T13:58:28.638Z,99.90
2018-12-06T14:00:57.135Z,99.90
2018-12-06T14:03:25.751Z,99.90
2018-12-06T14:05:54.455Z,99.90
2018-12-06T14:08:22.706Z,99.90
2018-12-06T14:10:50.962Z,99.90
2018-12-06T14:13:23.650Z,99.90
2018-12-06T14:15:49.530Z,99.90
2018-12-06T14:18:17.785Z,99.90
2018-12-06T14:20:46.070Z,99.90
2018-12-06T14:23:14.554Z,99.90
2018-12-06T14:25:42.824Z,99.90
2018-12-06T14:28:11.487Z,99.90
2018-12-06T14:30:39.741Z,99.90
2018-12-06T14:33:07.994Z,99.90
2018-12-06T14:35:36.292Z,99.90
2018-12-06T14:38:04.724Z,99.90
2018-12-06T14:40:33.254Z,99.90
2018-12-06T14:43:01.968Z,99.90
2018-12-06T14:45:30.707Z,99.90
2018-12-06T14:47:58.962Z,99.90
2018-12-06T14:50:27.717Z,99.90
2018-12-06T14:52:55.976Z,99.90
2018-12-06T14:55:24.238Z,99.90
2018-12-06T14:57:52.538Z,99.90
2018-12-06T15:00:20.831Z,99.90
2018-12-06T15:02:49.261Z,99.90
2018-12-06T15:05:17.578Z,99.90
2018-12-06T15:07:45.888Z,99.90
2018-12-06T15:10:14.128Z,99.90
2018-12-06T15:12:42.844Z,99.90
2018-12-06T15:15:11.104Z,99.90
2018-12-06T15:17:39.363Z,99.90
2018-12-06T15:20:08.106Z,99.90
2018-12-06T15:22:36.378Z,99.90
2018-12-06T15:25:06.130Z,99.90
2018-12-06T15:27:34.792Z,99.90
2018-12-06T15:30:03.762Z,99.90
2018-12-06T15:32:32.010Z,99.90
2018-12-06T15:35:00.710Z,99.90
2018-12-06T15:37:28.966Z,99.90
2018-12-06T15:39:57.226Z,99.90
2018-12-06T15:42:25.554Z,99.90
2018-12-06T15:44:54.006Z,99.90
2018-12-06T15:47:23.070Z,99.90
2018-12-06T15:49:51.346Z,99.90
2018-12-06T15:52:19.606Z,99.90
2018-12-06T15:54:48.034Z,99.90
2018-12-06T15:57:16.842Z,99.90
2018-12-06T15:59:45.098Z,99.90
2018-12-06T16:02:13.371Z,99.90
2018-12-06T16:04:41.650Z,99.90
2018-12-06T16:07:09.910Z,99.90
2018-12-06T16:09:38.170Z,99.90
2018-12-06T16:12:06.458Z,99.90
2018-12-06T16:14:34.729Z,99.90
2018-12-06T16:17:02.996Z,99.90
2018-12-06T16:19:32.386Z,99.90
2018-12-06T16:22:00.650Z,99.90
2018-12-06T16:24:28.916Z,99.90
2018-12-06T16:26:57.202Z,99.90
2018-12-06T16:29:25.566Z,99.90
2018-12-06T16:31:53.855Z,99.90
2018-12-06T16:34:22.127Z,99.90
2018-12-06T16:36:52.290Z,99.90
2018-12-06T16:39:21.162Z,99.90
2018-12-06T16:41:56.859Z,99.90
2018-12-06T16:44:25.117Z,99.90
2018-12-06T16:46:53.462Z,99.90
2018-12-06T16:49:23.718Z,99.90
2018-12-06T16:51:52.870Z,99.90
2018-12-06T16:54:22.290Z,99.90
2018-12-06T16:56:50.598Z,99.90
2018-12-06T16:59:20.159Z,99.90
2018-12-06T17:01:49.582Z,99.90
2018-12-06T17:04:18.059Z,99.90
2018-12-06T17:06:48.679Z,99.90
2018-12-06T17:09:18.237Z,99.90
2018-12-06T17:11:47.763Z,99.90
2018-12-06T17:14:16.033Z,99.90
2018-12-06T17:16:44.287Z,99.90
2018-12-06T17:19:12.607Z,99.90
2018-12-06T17:21:40.954Z,99.90
2018-12-06T17:24:09.298Z,99.90
2018-12-06T17:26:38.064Z,99.90
2018-12-06T17:29:06.359Z,99.90
2018-12-06T17:31:34.928Z,99.90
2018-12-06T17:34:03.198Z,99.90
2018-12-06T17:36:31.495Z,99.90
2018-12-06T17:39:00.067Z,99.90
2018-12-06T17:41:28.329Z,99.90
2018-12-06T17:43:56.825Z,99.90
2018-12-06T17:46:25.334Z,99.90
2018-12-06T17:48:53.738Z,99.90
2018-12-06T17:51:22.099Z,99.90
2018-12-06T17:53:56.326Z,99.90
2018-12-06T17:56:24.680Z,99.90
2018-12-06T17:58:53.055Z,99.90
2018-12-06T18:01:21.420Z,99.90
2018-12-06T18:03:49.803Z,99.90
2018-12-06T18:06:18.064Z,99.90
2018-12-06T18:08:46.762Z,99.90
2018-12-06T18:11:17.109Z,99.90
2018-12-06T18:13:49.550Z,99.90
2018-12-06T18:16:19.755Z,99.90
2018-12-06T18:18:48.133Z,99.90
2018-12-06T18:21:19.015Z,99.90
2018-12-06T18:23:49.471Z,99.90
2018-12-06T18:26:17.822Z,99.90
2018-12-06T18:28:46.428Z,99.90
2018-12-06T18:31:14.934Z,99.90
2018-12-06T18:33:43.277Z,99.90
2018-12-06T18:36:13.526Z,99.90
2018-12-06T18:38:41.866Z,99.90
2018-12-06T18:41:10.250Z,99.90
2018-12-06T18:43:39.574Z,99.90
2018-12-06T18:46:07.930Z,99.90
2018-12-06T18:48:36.326Z,99.90
2018-12-06T18:51:04.862Z,99.90
2018-12-06T18:53:33.866Z,99.90
2018-12-06T18:56:02.120Z,99.90
2018-12-06T18:58:34.565Z,99.90
2018-12-06T19:01:02.862Z,99.90
2018-12-06T19:03:31.179Z,99.90
2018-12-06T19:05:59.602Z,99.90
2018-12-06T19:08:27.950Z,99.90
2018-12-06T19:10:56.487Z,99.90
2018-12-06T19:13:25.172Z,99.90
2018-12-06T19:15:54.614Z,99.90
2018-12-06T19:18:22.975Z,99.90
2018-12-06T19:20:51.412Z,99.90
2018-12-06T19:23:20.675Z,99.90
2018-12-06T19:25:49.074Z,99.90
2018-12-06T19:28:21.474Z,99.90
2018-12-06T19:30:54.724Z,99.90
2018-12-06T19:33:23.195Z,99.90
2018-12-06T19:35:52.406Z,99.90
2018-12-06T19:38:20.780Z,99.90
2018-12-06T19:40:50.239Z,99.90
2018-12-06T19:43:18.502Z,99.90
2018-12-06T19:45:47.803Z,99.90
2018-12-06T19:48:16.174Z,99.90
2018-12-06T19:50:45.456Z,99.90
2018-12-06T19:53:14.909Z,99.90
2018-12-06T19:55:44.477Z,99.90
2018-12-06T19:58:12.730Z,99.90
2018-12-06T20:00:41.110Z,99.90
2018-12-06T20:03:16.243Z,99.90
2018-12-06T20:05:44.633Z,99.90
2018-12-06T20:08:13.086Z,99.90
2018-12-06T20:10:42.359Z,99.90
2018-12-06T20:13:10.694Z,99.90
2018-12-06T20:15:39.068Z,99.90
2018-12-06T20:18:07.462Z,99.90
2018-12-06T20:20:35.822Z,99.90
2018-12-06T20:23:05.138Z,99.90
2018-12-06T20:25:34.482Z,99.90
2018-12-06T20:28:02.747Z,99.90
2018-12-06T20:30:31.190Z,99.90
2018-12-06T20:33:02.338Z,99.90
2018-12-06T20:35:32.602Z,99.90
2018-12-06T20:38:00.938Z,99.90
2018-12-06T20:40:29.399Z,99.90
2018-12-06T20:42:57.687Z,99.90
2018-12-06T20:45:26.067Z,99.90
2018-12-06T20:47:54.643Z,99.90
2018-12-06T20:50:22.881Z,99.90
2018-12-06T20:52:55.230Z,99.90
2018-12-06T20:55:23.663Z,99.90
2018-12-06T20:57:51.967Z,99.90
2018-12-06T21:00:21.380Z,99.90
2018-12-06T21:02:50.419Z,99.90
2018-12-06T21:05:18.662Z,99.90
2018-12-06T21:07:47.042Z,99.90
2018-12-06T21:10:15.479Z,99.90
2018-12-06T21:12:43.866Z,99.90
2018-12-06T21:15:12.276Z,99.90
2018-12-06T21:17:42.679Z,99.90
2018-12-06T21:20:11.054Z,99.90
2018-12-06T21:22:39.526Z,99.90
2018-12-06T21:25:08.778Z,99.90
2018-12-06T21:27:37.046Z,99.90
2018-12-06T21:30:06.385Z,99.90
2018-12-06T21:32:34.798Z,99.90
2018-12-06T21:35:03.267Z,99.90
2018-12-06T21:37:33.866Z,99.90
2018-12-06T21:40:02.210Z,99.90
2018-12-06T21:42:32.618Z,99.90
2018-12-06T21:45:01.120Z,99.90
2018-12-06T21:47:29.375Z,99.90
2018-12-06T21:49:58.117Z,99.90
2018-12-06T21:52:26.810Z,99.90
2018-12-06T21:54:55.074Z,99.90
2018-12-06T21:57:23.330Z,99.90
2018-12-06T21:59:51.777Z,99.90
2018-12-06T22:02:23.227Z,99.90
2018-12-06T22:04:51.551Z,99.90
2018-12-06T22:07:20.192Z,99.90
2018-12-06T22:09:48.446Z,99.90
2018-12-06T22:12:16.710Z,99.90
2018-12-06T22:14:44.994Z,99.90
2018-12-06T22:17:13.247Z,99.90
2018-12-06T22:19:41.510Z,99.90
2018-12-06T22:22:09.866Z,99.90
2018-12-06T22:24:38.119Z,99.90
2018-12-06T22:27:06.374Z,99.90
2018-12-06T22:29:34.977Z,99.90
2018-12-06T22:32:03.237Z,99.90
2018-12-06T22:34:31.486Z,99.90
2018-12-06T22:36:59.766Z,99.90
2018-12-06T22:39:28.176Z,99.90
2018-12-06T22:41:56.476Z,99.90
2018-12-06T22:44:24.730Z,99.90
2018-12-06T22:46:52.997Z,99.90
2018-12-06T22:49:21.254Z,99.90
2018-12-06T22:51:50.083Z,99.90
2018-12-06T22:54:18.342Z,99.90
2018-12-06T22:56:46.686Z,99.90
2018-12-06T22:59:14.974Z,99.90
2018-12-06T23:01:43.913Z,99.90
2018-12-06T23:04:12.167Z,99.90
2018-12-06T23:06:40.625Z,99.90
2018-12-06T23:09:09.055Z,99.90
2018-12-06T23:11:37.306Z,99.90
2018-12-06T23:14:05.968Z,99.90
2018-12-06T23:16:34.222Z,99.90
2018-12-06T23:19:02.522Z,99.90
2018-12-06T23:21:30.806Z,99.90
2018-12-06T23:23:59.144Z,99.90
2018-12-06T23:26:27.409Z,99.90
2018-12-06T23:28:55.685Z,99.90
2018-12-06T23:31:23.934Z,99.90
2018-12-06T23:33:52.386Z,99.90
2018-12-06T23:36:20.921Z,99.90
2018-12-06T23:38:49.170Z,99.90
2018-12-06T23:41:17.427Z,99.90
2018-12-06T23:43:45.705Z,99.90
2018-12-06T23:46:13.970Z,99.90
2018-12-06T23:48:42.222Z,99.90
2018-12-06T23:51:22.387Z,99.90
2018-12-06T23:53:50.895Z,99.90
2018-12-06T23:56:19.144Z,99.90
2018-12-06T23:58:47.423Z,99.90
